AirNav   Air Wisconsin Up To $57,000 Bonus
 
 1190 users online  

0CD6 Exempla Good Samaritan Heliport
Lafayette, Colorado, USA

GOING TO LAFAYETTE?


FAA INFORMATION EFFECTIVE 08 OCTOBER 2020

Location

FAA Identifier: 0CD6
Lat/Long: 39-58-15.0400N 105-05-14.6500W
39-58.250667N 105-05.244167W
39.9708444,-105.0874028
(estimated)
Elevation: 5204 ft. / 1586 m
From city: 2 miles S of LAFAYETTE, CO
Time zone: UTC -6 (UTC -7 during Standard Time)
Zip code: 80026

Heliport Operations

Heliport use: Private use. Permission required prior to landing
Activation date: 05/2006
Control tower: no
ARTCC: DENVER CENTER
FSS: DENVER FLIGHT SERVICE STATION
Attendance: UNATNDD
Segmented circle: no
Lights: PHONE-REQ

Heliport Communications

WX AWOS-3 at EIK (3 nm NE): 133.825 (303-604-4339)
WX AWOS-3 at BJC (4 nm S): PHONE 720-887-8067
WX AWOS-3 at BDU (8 nm NW): 118.825 (303-541-9540)
WX AWOS-3 at LMO (12 nm N): 120.0 (303-684-7545)

Nearby radio navigation aids

VOR radial/distance  VOR name  Freq  Var
BJCr023/4.2JEFFCO VOR/DME115.4011E
DVVr274/21.8MILE HIGH VORTAC114.7008E
DENr288/21.8DENVER VOR/DME117.9008E
FQFr297/27.3FALCON VORTAC116.3011E

Heliport Services

Runway Information

Helipad H1

Dimensions: 40 x 40 ft. / 12 x 12 m
Surface: concrete
Runway edge lights: PERI
Latitude: 39-58.250667N
Longitude: 105-05.244167W
Elevation: 5204.0 ft.
Traffic pattern: leftleft

Heliport Ownership and Management from official FAA records

Ownership: Privately-owned
Owner: EXEMPLA HEALTH CARE
200 EXEMPLA CIRCLE
LAFAYETTE, CO 80026
Phone 303-689-4000
Manager: MICHAEL GERKEN
200 EXEMPLA CIRCLE
LAFAYETTE, CO 80026
Phone 303-689-6060

Additional Remarks

MEDICAL USE.
FOR PERIMETER LGTS, CALL 303-689-6060.
FOR CD CTC DENVER APCH AT 303-342-1916.

Instrument Procedures

There are no published instrument procedures at 0CD6.

Some nearby airports with instrument procedures:

KEIK - Erie Municipal Airport (3 nm NE)
KBJC - Rocky Mountain Metropolitan Airport (4 nm S)
KLMO - Vance Brand Airport (12 nm N)
KDEN - Denver International Airport (20 nm E)
KBKF - Buckley Air Force Base (22 nm SE)
 
Loc | Ops | Rwys | IFR | FBO | Links
Com | Nav | Svcs | Stats | Notes

AirBoss

 
Area around 0CD6 (Exempla Good Samaritan Heliport)
 
Road maps at: MapQuest Bing Google
 
Aerial photo
No photo
 
Sectional chart

 
Airport distance calculator
Flying to Exempla Good Samaritan Heliport? Find the distance to fly.

From to 0CD6

Sunrise and sunset
Times for 21-Oct-2020
 Local
(UTC-6)
 Zulu
(UTC)
Morning civil twilight06:5212:52
Sunrise07:1913:19
Sunset18:1000:10
Evening civil twilight18:3800:38

Current date and time
Zulu (UTC)  21-Oct-2020 22:48:38
Local (UTC-6)  21-Oct-2020 16:48:38
 
METAR
KEIK 
3nm NE 
212235Z AUTO 00000KT 10SM CLR 17/00 A2978 RMK AO2 T01710000 PWINO
KBJC 
4nm SW 
212045Z 03006KT 10SM FEW080 BKN200 20/00 A2982
K1V5 
8nm NW 
AWOS 118.825 303-541-9540
No observation available
KBDU 
8nm NW 
212230Z AUTO 06003KT 10SM CLR 17/01 A2979 RMK AO2
KLMO 
12nm N 
212235Z AUTO 36004KT 10SM OVC110 15/01 A2981 RMK AO2 T01540014
TAF
KBJC 
4nm SW 
212207Z 2122/2218 03005KT P6SM SCT150 BKN200 FM220100 26010KT P6SM FEW120 BKN220 FM221300 02014G24KT P6SM SCT020 SCT120 BKN220 FM221700 04010G18KT P6SM BKN030 OVC120
NOTAMs
Click for the latest NOTAMs
NOTAMs are issued by the DoD/FAA and will open in a separate window not controlled by AirNav.

 

 
 

Would you like to see your business listed on this page?

 If your business provides an interesting product or service to pilots, flight crews, aircraft, or users of the Exempla Good Samaritan Heliport, you should consider listing it here.  To start the listing process, click on the button below
 
Add a business
 

Other Pages about Exempla Good Samaritan Heliport

Update a link
 
Copyright © AirNav, LLC. All rights reserved. Privacy Policy  Contact